TimeCST,TemperatureF,Dew PointF,Humidity,Sea Level PressureIn,VisibilityMPH,Wind Direction,Wind SpeedMPH,Gust SpeedMPH,PrecipitationIn,Events,Conditions,WindDirDegrees,DateUTC
12:53 AM,46.0,33.1,61,30.13,10.0,SSE,13.8,-,N/A,,Clear,160,2013-11-03 05:53:00
1:53 AM,46.9,32.0,56,30.12,10.0,SSE,17.3,-,N/A,,Clear,160,2013-11-03 06:53:00
1:53 AM,46.9,32.0,56,30.11,10.0,South,17.3,-,N/A,,Clear,170,2013-11-03 07:53:00
2:53 AM,46.0,32.0,58,30.09,10.0,South,15.0,-,N/A,,Clear,170,2013-11-03 08:53:00
3:53 AM,45.0,33.1,63,30.08,10.0,South,16.1,-,N/A,,Clear,170,2013-11-03 09:53:00
4:53 AM,44.1,33.1,65,30.07,10.0,South,15.0,-,N/A,,Clear,170,2013-11-03 10:53:00
5:53 AM,45.0,32.0,60,30.06,10.0,South,18.4,-,N/A,,Clear,170,2013-11-03 11:53:00
6:53 AM,45.0,32.0,60,30.06,10.0,South,18.4,-,N/A,,Clear,170,2013-11-03 12:53:00
7:53 AM,46.0,33.1,61,30.06,10.0,South,19.6,-,N/A,,Clear,170,2013-11-03 13:53:00
8:53 AM,50.0,33.1,52,30.06,10.0,South,23.0,-,N/A,,Clear,170,2013-11-03 14:53:00
9:53 AM,57.0,33.1,40,30.03,10.0,South,31.1,38.0,N/A,,Clear,170,2013-11-03 15:53:00
10:53 AM,57.0,35.1,44,30.01,10.0,South,27.6,33.4,N/A,,Clear,180,2013-11-03 16:53:00
11:53 AM,62.1,35.1,37,30.00,10.0,South,28.8,33.4,N/A,,Clear,180,2013-11-03 17:53:00
12:53 PM,64.9,34.0,32,29.92,10.0,South,29.9,40.3,N/A,,Clear,180,2013-11-03 18:53:00
1:53 PM,66.0,32.0,28,29.85,10.0,South,36.8,46.0,N/A,,Clear,180,2013-11-03 19:53:00
2:53 PM,64.9,32.0,29,29.87,10.0,South,29.9,43.7,N/A,,Clear,180,2013-11-03 20:53:00
3:53 PM,64.0,33.1,31,29.84,10.0,South,28.8,41.4,N/A,,Clear,180,2013-11-03 21:53:00
4:53 PM,61.0,34.0,36,29.87,10.0,SSE,25.3,32.2,N/A,,Clear,160,2013-11-03 22:53:00
5:53 PM,59.0,35.1,41,29.84,10.0,South,27.6,36.8,N/A,,Scattered Clouds,170,2013-11-03 23:53:00
6:53 PM,57.0,36.0,45,29.87,10.0,SSE,26.5,32.2,N/A,,Partly Cloudy,160,2013-11-04 00:53:00
7:53 PM,55.9,37.0,49,29.87,10.0,SSE,27.6,35.7,N/A,,Overcast,160,2013-11-04 01:53:00
8:53 PM,55.0,39.0,55,29.87,10.0,SSE,27.6,35.7,N/A,,Clear,160,2013-11-04 02:53:00
9:53 PM,54.0,39.0,57,29.86,10.0,SSE,24.2,31.1,N/A,,Partly Cloudy,160,2013-11-04 03:53:00
10:53 PM,54.0,41.0,62,29.86,10.0,South,27.6,33.4,N/A,,Clear,170,2013-11-04 04:53:00